Time;durP1;ratioP1;P1;durP2;ratioP2;P2;SDS_P1;SDS_P2;PMS_P1;PMS_P2;Temp;Humidity;BMP_temperature;BMP_pressure;BME280_temperature;BME280_humidity;BME280_pressure;Samples;Min_cycle;Max_cycle;Signal;HPM_P1;HPM_P2
2022/10/18 00:02:23;;;;;;;16.47;9.60;;;17.50;99.90;;;;;;5046336;28;20590;-63
2022/10/18 00:04:50;;;;;;;18.33;10.87;;;17.50;99.90;;;;;;5045345;28;21077;-63
2022/10/18 00:07:16;;;;;;;19.90;8.57;;;17.30;99.90;;;;;;5026892;28;20487;-63
2022/10/18 00:09:43;;;;;;;20.17;9.40;;;17.20;99.90;;;;;;5050713;28;20502;-63
2022/10/18 00:12:10;;;;;;;23.57;10.70;;;17.10;99.90;;;;;;5041575;28;20465;-63
2022/10/18 00:14:36;;;;;;;30.03;9.53;;;17.00;99.90;;;;;;5061518;28;20878;-62
2022/10/18 00:17:03;;;;;;;26.27;13.30;;;17.00;99.90;;;;;;5048626;28;20491;-63
2022/10/18 00:19:31;;;;;;;22.07;11.20;;;17.00;99.90;;;;;;5049511;28;20482;-63
2022/10/18 00:21:58;;;;;;;25.53;12.97;;;17.00;99.90;;;;;;5064032;28;20486;-63
2022/10/18 00:24:25;;;;;;;22.47;11.00;;;17.00;99.90;;;;;;5072195;28;20490;-63
2022/10/18 00:26:51;;;;;;;20.73;9.80;;;16.90;99.90;;;;;;5065049;28;20854;-62
2022/10/18 00:29:18;;;;;;;38.93;13.70;;;16.80;99.90;;;;;;5065286;28;20857;-63
2022/10/18 00:31:45;;;;;;;15.70;9.37;;;16.90;99.90;;;;;;5067742;28;20556;-62
2022/10/18 00:34:14;;;;;;;19.53;9.10;;;16.70;99.90;;;;;;5071158;28;20479;-63
2022/10/18 00:36:42;;;;;;;14.63;7.40;;;16.60;99.90;;;;;;5064769;28;20852;-63
2022/10/18 00:39:14;;;;;;;14.13;9.70;;;16.50;99.90;;;;;;5071765;28;20486;-62
2022/10/18 00:41:41;;;;;;;15.70;8.30;;;16.50;99.90;;;;;;5072830;28;20478;-63
2022/10/18 00:44:47;;;;;;;25.63;11.20;;;16.50;99.90;;;;;;5071503;28;20486;-63
2022/10/18 00:47:17;;;;;;;16.90;9.30;;;16.40;99.90;;;;;;5065384;28;20493;-63
2022/10/18 00:49:47;;;;;;;19.50;8.73;;;16.40;99.90;;;;;;5069931;28;21061;-63
2022/10/18 00:52:17;;;;;;;17.03;10.80;;;16.40;99.90;;;;;;5070906;28;20482;-62
2022/10/18 00:54:46;;;;;;;11.63;8.80;;;16.50;99.90;;;;;;5071406;28;21026;-63
2022/10/18 00:57:13;;;;;;;20.60;10.60;;;16.60;99.90;;;;;;5067841;28;20492;-63
2022/10/18 00:59:41;;;;;;;11.53;8.60;;;16.70;99.90;;;;;;5072561;28;20474;-63
2022/10/18 01:02:08;;;;;;;16.63;11.83;;;16.80;99.90;;;;;;5067791;28;20474;-63
2022/10/18 01:04:37;;;;;;;9.50;7.67;;;16.80;99.90;;;;;;5072945;28;20482;-62
2022/10/18 01:07:14;;;;;;;36.27;11.47;;;16.80;99.90;;;;;;5064955;28;20490;-63
2022/10/18 01:09:47;;;;;;;16.87;8.60;;;16.80;99.90;;;;;;5073221;28;21141;-63
2022/10/18 01:12:32;;;;;;;20.37;9.70;;;16.70;99.90;;;;;;5059459;28;20467;-63
2022/10/18 01:15:06;;;;;;;16.40;11.10;;;16.60;99.90;;;;;;5067689;28;20559;-63
2022/10/18 01:17:40;;;;;;;18.63;9.90;;;16.50;99.90;;;;;;5067268;28;20489;-63
2022/10/18 01:20:41;;;;;;;17.60;11.30;;;16.50;99.90;;;;;;5065594;28;20477;-63
2022/10/18 01:23:13;;;;;;;20.20;12.70;;;16.50;99.90;;;;;;5042719;28;20493;-63
2022/10/18 01:25:50;;;;;;;22.50;8.87;;;16.40;99.90;;;;;;5066157;28;20803;-63
2022/10/18 01:28:34;;;;;;;21.33;9.00;;;16.40;99.90;;;;;;5064730;28;20478;-63
2022/10/18 01:31:04;;;;;;;25.50;13.53;;;16.40;99.90;;;;;;5057241;28;20490;-62
2022/10/18 01:33:36;;;;;;;24.53;10.63;;;16.50;99.90;;;;;;5069412;28;20469;-63
2022/10/18 01:36:07;;;;;;;20.43;12.93;;;16.60;99.90;;;;;;5078348;28;20513;-63
2022/10/18 01:38:36;;;;;;;15.80;8.80;;;16.70;99.90;;;;;;5077566;28;20474;-63
2022/10/18 01:41:06;;;;;;;17.73;10.37;;;16.70;99.90;;;;;;5066639;28;20478;-63
2022/10/18 01:43:35;;;;;;;18.20;9.83;;;16.60;99.90;;;;;;5073492;28;20553;-63
2022/10/18 01:46:04;;;;;;;19.07;10.63;;;16.60;99.90;;;;;;5074434;28;20489;-63
2022/10/18 01:48:32;;;;;;;14.67;9.03;;;16.60;99.90;;;;;;5066754;28;20477;-63
2022/10/18 01:50:59;;;;;;;20.80;14.50;;;16.70;99.90;;;;;;5055898;28;20530;-63
2022/10/18 01:53:28;;;;;;;19.63;8.70;;;16.70;99.90;;;;;;5078922;28;20482;-63
2022/10/18 01:56:08;;;;;;;21.93;12.50;;;16.60;99.90;;;;;;5077541;28;20483;-63
2022/10/18 01:58:41;;;;;;;14.70;9.13;;;16.60;99.90;;;;;;5075263;28;20544;-62
2022/10/18 02:01:17;;;;;;;20.03;11.47;;;16.70;99.90;;;;;;5063929;28;20478;-63
2022/10/18 02:03:48;;;;;;;10.87;7.97;;;16.70;99.90;;;;;;5072346;28;20822;-62
2022/10/18 02:06:21;;;;;;;21.73;13.50;;;16.70;99.90;;;;;;5073529;28;21090;-63
2022/10/18 02:08:54;;;;;;;19.80;12.97;;;16.70;99.90;;;;;;5042721;28;20711;-63
2022/10/18 02:11:21;;;;;;;21.10;9.43;;;16.70;99.90;;;;;;5072225;28;20477;-62
2022/10/18 02:13:51;;;;;;;14.37;10.87;;;16.70;99.90;;;;;;5063857;28;20490;-62
2022/10/18 02:16:23;;;;;;;18.97;12.90;;;16.70;99.90;;;;;;5065311;28;21319;-62
2022/10/18 02:18:55;;;;;;;13.83;10.40;;;16.70;99.90;;;;;;5071221;28;21070;-62
2022/10/18 02:21:23;;;;;;;14.47;9.93;;;16.60;99.90;;;;;;5072089;28;20474;-63
2022/10/18 02:23:52;;;;;;;18.53;9.20;;;16.50;99.90;;;;;;5073512;28;20474;-62
2022/10/18 02:26:18;;;;;;;20.83;13.70;;;16.50;99.90;;;;;;5069875;28;20490;-62
2022/10/18 02:28:45;;;;;;;15.07;11.00;;;16.50;99.90;;;;;;5075837;28;20894;-62
2022/10/18 02:31:17;;;;;;;19.43;9.67;;;16.50;99.90;;;;;;5073009;28;20489;-62
2022/10/18 02:33:51;;;;;;;14.37;8.87;;;16.60;99.90;;;;;;5075205;28;20482;-63
2022/10/18 02:36:23;;;;;;;29.10;13.20;;;16.60;99.90;;;;;;5069310;28;20501;-62
2022/10/18 02:38:54;;;;;;;17.00;9.70;;;16.70;99.90;;;;;;5071433;28;20482;-62
2022/10/18 02:41:23;;;;;;;15.23;9.43;;;16.70;99.90;;;;;;5076013;28;20916;-62
2022/10/18 02:43:50;;;;;;;22.87;9.03;;;16.70;99.90;;;;;;5071284;28;20865;-62
2022/10/18 02:46:16;;;;;;;26.67;12.57;;;18.30;99.90;;;;;;5065476;28;20485;-62
2022/10/18 02:48:45;;;;;;;11.83;9.30;;;16.60;99.90;;;;;;5071882;28;20485;-63
2022/10/18 02:51:11;;;;;;;19.70;8.70;;;16.60;99.90;;;;;;5055174;28;20529;-63
2022/10/18 02:53:38;;;;;;;17.30;9.50;;;16.70;99.90;;;;;;5068701;28;20469;-62
2022/10/18 02:56:05;;;;;;;20.17;13.33;;;16.70;99.90;;;;;;5068872;28;20775;-63
2022/10/18 02:58:32;;;;;;;19.93;8.53;;;16.70;99.90;;;;;;5077946;28;21266;-62
2022/10/18 03:00:59;;;;;;;21.17;13.40;;;16.70;99.90;;;;;;5074117;28;20477;-63
2022/10/18 03:03:25;;;;;;;16.90;10.03;;;16.70;99.90;;;;;;5070527;28;20474;-62
2022/10/18 03:05:53;;;;;;;23.17;9.43;;;16.80;99.90;;;;;;5073031;28;20509;-63
2022/10/18 03:08:21;;;;;;;18.90;10.63;;;16.70;99.90;;;;;;5071774;28;21079;-62
2022/10/18 03:10:48;;;;;;;16.37;10.33;;;16.70;99.90;;;;;;5063741;28;20886;-63
2022/10/18 03:13:15;;;;;;;19.83;10.20;;;16.70;99.90;;;;;;5072574;28;20481;-62
2022/10/18 03:15:42;;;;;;;16.70;9.90;;;16.70;99.90;;;;;;5070558;28;20502;-63
2022/10/18 03:18:09;;;;;;;22.63;13.50;;;16.60;99.90;;;;;;5060221;28;20478;-62
2022/10/18 03:20:35;;;;;;;17.70;7.97;;;16.60;99.90;;;;;;5073447;28;20485;-62
2022/10/18 03:23:04;;;;;;;16.63;12.00;;;16.60;99.90;;;;;;5060347;28;20498;-63
2022/10/18 03:25:31;;;;;;;14.53;10.17;;;16.60;99.90;;;;;;5073086;28;20993;-63
2022/10/18 03:27:57;;;;;;;23.87;11.70;;;16.60;99.90;;;;;;5069752;28;20478;-63
2022/10/18 03:30:24;;;;;;;19.13;10.50;;;16.60;99.90;;;;;;5063239;28;21029;-62
2022/10/18 03:32:53;;;;;;;19.60;11.57;;;16.50;99.90;;;;;;5072675;28;20471;-62
2022/10/18 03:35:19;;;;;;;22.30;9.03;;;16.60;99.90;;;;;;5073284;28;20483;-62
2022/10/18 03:37:46;;;;;;;13.53;9.40;;;16.60;99.90;;;;;;5068977;28;20832;-63
2022/10/18 03:40:14;;;;;;;15.60;10.53;;;16.60;99.90;;;;;;5071114;28;20474;-63
2022/10/18 03:42:41;;;;;;;14.97;8.53;;;16.70;99.90;;;;;;5074225;28;20494;-63
2022/10/18 03:45:08;;;;;;;16.57;12.57;;;16.70;99.90;;;;;;5068336;28;20486;-62
2022/10/18 03:47:35;;;;;;;12.93;8.80;;;16.80;99.90;;;;;;5069441;28;20474;-62
2022/10/18 03:50:02;;;;;;;22.77;12.73;;;17.50;99.90;;;;;;5069789;28;20516;-62
2022/10/18 03:52:29;;;;;;;15.60;10.00;;;16.90;99.90;;;;;;5074924;28;20482;-63
2022/10/18 03:54:55;;;;;;;26.67;14.07;;;16.80;99.90;;;;;;5060325;28;20486;-63
2022/10/18 03:57:23;;;;;;;22.83;10.30;;;16.90;99.90;;;;;;5069309;28;21030;-63
2022/10/18 03:59:50;;;;;;;20.93;10.40;;;17.00;99.90;;;;;;5069448;28;20485;-63
2022/10/18 04:02:17;;;;;;;15.17;11.30;;;17.00;99.90;;;;;;5071215;28;20474;-62
2022/10/18 04:04:43;;;;;;;26.43;10.10;;;17.10;99.90;;;;;;5062710;28;20517;-63
2022/10/18 04:07:10;;;;;;;24.67;12.13;;;17.10;99.90;;;;;;5068493;28;20485;-63
2022/10/18 04:09:37;;;;;;;19.77;10.33;;;17.20;99.90;;;;;;5072508;28;20888;-63
2022/10/18 04:12:04;;;;;;;27.97;12.87;;;17.30;99.90;;;;;;5074227;28;20481;-63
2022/10/18 04:14:32;;;;;;;23.77;11.27;;;17.40;99.90;;;;;;5069047;28;20792;-63
2022/10/18 04:16:59;;;;;;;28.40;12.70;;;17.30;99.90;;;;;;5068291;28;20553;-63
2022/10/18 04:19:26;;;;;;;30.77;11.27;;;17.30;99.90;;;;;;5073078;28;20691;-62
2022/10/18 04:21:53;;;;;;;21.23;10.33;;;17.40;99.90;;;;;;5072823;28;20486;-63
2022/10/18 04:24:20;;;;;;;19.73;10.60;;;17.30;99.90;;;;;;5074795;28;20493;-63
2022/10/18 04:26:46;;;;;;;19.33;9.27;;;17.30;99.90;;;;;;5070086;28;20490;-63
2022/10/18 04:29:13;;;;;;;26.77;12.50;;;17.30;99.90;;;;;;5066831;28;20816;-63
2022/10/18 04:31:41;;;;;;;14.37;10.00;;;17.20;99.90;;;;;;5078608;28;20482;-62
2022/10/18 04:34:08;;;;;;;23.50;10.00;;;17.20;99.90;;;;;;5066506;28;20824;-63
2022/10/18 04:36:35;;;;;;;11.90;7.97;;;17.30;99.90;;;;;;5068677;28;20493;-63
2022/10/18 04:39:02;;;;;;;24.73;13.63;;;17.30;99.90;;;;;;5070508;28;20485;-62
2022/10/18 04:41:28;;;;;;;18.40;8.57;;;17.40;99.90;;;;;;5075039;28;20498;-63
2022/10/18 04:43:55;;;;;;;26.37;12.70;;;17.50;99.90;;;;;;5068518;28;20922;-63
2022/10/18 04:46:22;;;;;;;32.73;11.50;;;17.60;99.90;;;;;;5079363;28;20482;-64
2022/10/18 04:48:50;;;;;;;23.73;8.80;;;17.70;99.90;;;;;;5065241;28;20481;-63
2022/10/18 04:51:17;;;;;;;27.93;11.00;;;17.80;99.90;;;;;;5074383;28;20485;-63
2022/10/18 04:53:43;;;;;;;19.67;9.20;;;17.80;99.90;;;;;;5072586;28;20575;-62
2022/10/18 04:56:10;;;;;;;28.53;12.80;;;17.70;99.90;;;;;;5070321;28;20502;-64
2022/10/18 04:58:37;;;;;;;15.27;9.10;;;17.70;99.90;;;;;;5072639;28;20475;-62
2022/10/18 05:01:05;;;;;;;25.53;14.13;;;17.60;99.90;;;;;;5074358;28;20478;-62
2022/10/18 05:03:32;;;;;;;15.43;8.10;;;17.70;99.90;;;;;;5061928;28;20475;-63
2022/10/18 05:06:00;;;;;;;33.30;15.00;;;17.70;99.90;;;;;;5073092;28;20991;-63
2022/10/18 05:08:27;;;;;;;17.00;9.77;;;17.70;99.90;;;;;;5073019;28;20481;-64
2022/10/18 05:10:53;;;;;;;22.40;10.30;;;17.60;99.90;;;;;;5070773;28;20489;-63
2022/10/18 05:13:20;;;;;;;15.50;10.07;;;17.60;99.90;;;;;;5070381;28;20478;-63
2022/10/18 05:15:47;;;;;;;16.30;9.40;;;17.60;99.90;;;;;;5073657;28;20900;-63
2022/10/18 05:18:14;;;;;;;24.80;10.10;;;17.60;99.90;;;;;;5068675;28;20670;-63
2022/10/18 05:20:40;;;;;;;13.93;9.20;;;17.50;99.90;;;;;;5068400;28;20892;-63
2022/10/18 05:23:09;;;;;;;24.80;13.10;;;17.40;99.90;;;;;;5070964;28;20470;-63
2022/10/18 05:25:38;;;;;;;21.43;9.97;;;17.30;99.90;;;;;;5066168;28;20569;-63
2022/10/18 05:28:05;;;;;;;27.57;14.93;;;19.40;99.90;;;;;;5073072;28;20487;-62
2022/10/18 05:30:32;;;;;;;21.83;10.10;;;17.20;99.90;;;;;;5069316;28;20493;-63
2022/10/18 05:32:59;;;;;;;20.13;12.30;;;17.20;99.90;;;;;;5068658;28;20467;-63
2022/10/18 05:35:26;;;;;;;27.77;12.27;;;17.20;99.90;;;;;;5069382;28;20959;-62
2022/10/18 05:37:52;;;;;;;19.27;11.27;;;17.30;99.90;;;;;;5065371;28;20486;-62
2022/10/18 05:40:20;;;;;;;16.63;9.80;;;17.40;99.90;;;;;;5066715;28;20474;-63
2022/10/18 05:42:47;;;;;;;18.77;10.77;;;17.40;99.90;;;;;;5060819;28;20486;-63
2022/10/18 05:45:14;;;;;;;25.87;11.63;;;17.50;99.90;;;;;;5066243;28;20470;-63
2022/10/18 05:47:41;;;;;;;12.83;9.80;;;17.50;99.90;;;;;;5069687;28;20482;-63
2022/10/18 05:50:08;;;;;;;41.47;14.13;;;17.50;99.90;;;;;;5070198;28;21036;-63
2022/10/18 05:52:35;;;;;;;16.53;8.97;;;17.50;99.90;;;;;;5072450;28;20501;-62
2022/10/18 05:55:01;;;;;;;23.90;13.60;;;17.50;99.90;;;;;;5070962;28;21004;-63
2022/10/18 05:57:29;;;;;;;18.97;10.57;;;17.50;99.90;;;;;;5067579;28;20481;-63
2022/10/18 05:59:56;;;;;;;16.13;11.33;;;;;;;;;;5071471;28;22039;-63
2022/10/18 06:02:23;;;;;;;17.47;10.57;;;17.50;99.90;;;;;;5061016;28;20519;-63
2022/10/18 06:04:50;;;;;;;18.80;9.53;;;17.50;99.90;;;;;;5073054;28;20513;-63
2022/10/18 06:07:17;;;;;;;14.00;10.00;;;17.50;99.90;;;;;;5068546;28;20478;-63
2022/10/18 06:09:44;;;;;;;18.87;8.93;;;17.40;99.90;;;;;;5072003;28;20482;-62
2022/10/18 06:12:11;;;;;;;14.80;11.20;;;17.40;99.90;;;;;;5067900;28;20502;-63
2022/10/18 06:14:39;;;;;;;17.10;8.73;;;;;;;;;;5071409;28;21116;-63
2022/10/18 06:17:06;;;;;;;17.80;12.03;;;17.40;99.90;;;;;;5069653;28;20486;-63
2022/10/18 06:19:32;;;;;;;17.43;9.80;;;17.40;99.90;;;;;;5073849;28;20521;-63
2022/10/18 06:21:59;;;;;;;18.73;12.40;;;;;;;;;;5072811;28;20482;-63
2022/10/18 06:24:26;;;;;;;25.23;10.73;;;17.40;99.90;;;;;;5077126;28;20815;-63
2022/10/18 06:26:53;;;;;;;21.63;10.83;;;17.40;99.90;;;;;;5070166;28;20882;-63
2022/10/18 06:29:20;;;;;;;23.93;12.00;;;17.50;99.90;;;;;;5077925;28;20490;-63
2022/10/18 06:31:48;;;;;;;14.30;10.90;;;17.50;99.90;;;;;;5078736;28;20490;-64
2022/10/18 06:34:14;;;;;;;25.73;13.77;;;17.50;99.90;;;;;;5075156;28;20485;-62
2022/10/18 06:36:42;;;;;;;14.90;9.17;;;;;;;;;;5064582;28;20478;-63
2022/10/18 06:39:08;;;;;;;23.63;13.43;;;17.50;99.90;;;;;;5076091;28;20583;-62
2022/10/18 06:41:35;;;;;;;17.97;10.63;;;17.60;99.90;;;;;;5075215;28;20490;-63
2022/10/18 06:44:12;;;;;;;28.57;16.50;;;17.50;99.90;;;;;;5074570;28;20866;-63
2022/10/18 06:46:38;;;;;;;15.60;9.23;;;17.40;99.90;;;;;;5077210;28;21355;-62
2022/10/18 06:49:07;;;;;;;20.37;13.20;;;17.40;99.90;;;;;;5074349;28;20489;-62
2022/10/18 06:51:33;;;;;;;25.50;9.50;;;17.50;99.90;;;;;;5072472;28;20866;-62
2022/10/18 06:54:00;;;;;;;21.23;13.33;;;17.50;99.90;;;;;;5075762;28;20541;-63
2022/10/18 06:56:27;;;;;;;16.73;10.03;;;17.60;99.90;;;;;;5070002;28;20871;-62
2022/10/18 06:58:54;;;;;;;32.40;10.87;;;17.60;99.90;;;;;;5074791;28;20584;-62
2022/10/18 07:01:21;;;;;;;21.03;12.60;;;;;;;;;;5063059;28;20853;-62
2022/10/18 07:03:49;;;;;;;18.00;11.43;;;17.60;99.90;;;;;;5077045;28;21061;-63
2022/10/18 07:06:18;;;;;;;29.60;15.23;;;;;;;;;;5081576;28;20478;-63
2022/10/18 07:08:46;;;;;;;27.37;13.70;;;17.60;99.90;;;;;;5061126;28;20470;-62
2022/10/18 07:11:16;;;;;;;25.93;13.83;;;17.60;99.90;;;;;;5076010;28;20482;-62
2022/10/18 07:13:42;;;;;;;22.90;11.83;;;17.70;99.90;;;;;;5073399;28;20482;-61
2022/10/18 07:16:12;;;;;;;41.40;18.00;;;17.80;99.90;;;;;;5054493;28;20838;-61
2022/10/18 07:18:40;;;;;;;25.10;10.93;;;17.80;99.90;;;;;;5073025;28;20493;-62
2022/10/18 07:21:09;;;;;;;35.70;17.20;;;18.00;99.90;;;;;;5062279;28;20457;-61
2022/10/18 07:23:41;;;;;;;26.10;12.33;;;18.30;99.90;;;;;;5064942;28;21058;-63
2022/10/18 07:26:13;;;;;;;39.83;18.77;;;18.70;99.90;;;;;;5073128;28;20723;-62
2022/10/18 07:28:40;;;;;;;26.33;13.20;;;19.40;99.90;;;;;;5076612;28;20478;-62
2022/10/18 07:31:07;;;;;;;28.40;14.97;;;20.30;99.90;;;;;;5075575;28;20505;-63
2022/10/18 07:33:34;;;;;;;21.77;10.47;;;21.00;99.90;;;;;;5068399;28;20481;-62
2022/10/18 07:36:02;;;;;;;44.47;19.50;;;21.20;99.90;;;;;;5075268;28;20974;-62
2022/10/18 07:38:28;;;;;;;27.90;13.83;;;21.20;99.90;;;;;;5073578;28;20482;-63
2022/10/18 07:40:58;;;;;;;22.77;11.20;;;;;;;;;;5072270;28;20629;-61
2022/10/18 07:43:25;;;;;;;17.77;11.90;;;20.80;99.90;;;;;;5073584;28;20456;-62
2022/10/18 07:45:52;;;;;;;21.30;14.67;;;20.50;99.90;;;;;;5083942;28;20835;-63
2022/10/18 07:48:19;;;;;;;27.13;11.90;;;20.20;99.90;;;;;;5059852;28;20478;-61
2022/10/18 07:50:46;;;;;;;21.83;12.40;;;20.00;99.90;;;;;;5066385;28;21149;-61
2022/10/18 07:53:13;;;;;;;22.57;14.00;;;19.80;99.90;;;;;;5072124;28;20489;-62
2022/10/18 07:55:40;;;;;;;26.10;14.40;;;19.70;99.90;;;;;;5045748;28;20487;-62
2022/10/18 07:58:08;;;;;;;26.27;15.23;;;19.60;99.90;;;;;;5077288;28;20457;-62
2022/10/18 08:00:35;;;;;;;19.20;12.93;;;19.50;99.90;;;;;;5077684;28;20552;-63
2022/10/18 08:03:02;;;;;;;32.53;16.70;;;19.60;99.90;;;;;;5077360;28;20514;-62
2022/10/18 08:05:28;;;;;;;23.80;14.10;;;19.90;99.90;;;;;;5077199;28;20478;-62
2022/10/18 08:07:55;;;;;;;29.47;15.87;;;19.80;99.90;;;;;;5061692;28;20949;-62
2022/10/18 08:10:23;;;;;;;21.73;12.43;;;19.80;99.90;;;;;;5069793;28;20515;-61
2022/10/18 08:12:51;;;;;;;28.20;15.20;;;;;;;;;;5063238;28;20468;-62
2022/10/18 08:15:20;;;;;;;20.43;13.00;;;19.80;99.90;;;;;;5072164;28;20453;-61
2022/10/18 08:17:47;;;;;;;23.33;11.10;;;19.80;99.90;;;;;;5065466;28;20755;-62
2022/10/18 08:20:14;;;;;;;20.10;12.97;;;19.80;99.90;;;;;;5066025;28;20695;-63
2022/10/18 08:22:40;;;;;;;19.20;12.87;;;19.80;99.90;;;;;;5071127;28;20482;-61
2022/10/18 08:25:08;;;;;;;21.27;11.13;;;19.80;99.90;;;;;;5069612;28;21135;-62
2022/10/18 08:27:34;;;;;;;26.77;11.97;;;19.90;99.90;;;;;;5072423;28;20481;-62
2022/10/18 08:30:01;;;;;;;33.13;17.10;;;20.00;99.90;;;;;;5072844;28;20877;-62
2022/10/18 08:32:29;;;;;;;28.80;13.20;;;20.20;99.90;;;;;;5073981;28;20490;-62
2022/10/18 08:34:56;;;;;;;23.57;14.87;;;20.30;99.90;;;;;;5071864;28;20518;-63
2022/10/18 08:37:23;;;;;;;25.87;14.40;;;20.20;99.90;;;;;;5070419;28;20853;-62
2022/10/18 08:39:50;;;;;;;35.07;14.03;;;20.30;99.90;;;;;;5072096;28;20493;-62
2022/10/18 08:42:33;;;;;;;28.00;15.77;;;20.20;99.90;;;;;;5071561;28;20494;-62
2022/10/18 08:45:00;;;;;;;29.53;16.23;;;20.00;99.90;;;;;;5073642;28;20506;-62
2022/10/18 08:47:35;;;;;;;28.27;14.80;;;20.20;99.90;;;;;;5072693;28;20449;-62
2022/10/18 08:50:05;;;;;;;24.00;15.67;;;20.40;99.90;;;;;;5072450;28;20439;-63
2022/10/18 08:52:37;;;;;;;21.33;13.13;;;20.50;99.90;;;;;;5061520;28;20951;-63
2022/10/18 08:55:11;;;;;;;31.13;14.40;;;20.70;99.90;;;;;;5059134;28;20478;-64
2022/10/18 08:57:38;;;;;;;19.17;11.47;;;20.70;99.90;;;;;;5056626;28;20785;-64
2022/10/18 09:00:14;;;;;;;23.60;14.93;;;20.70;99.90;;;;;;5070832;28;20482;-64
2022/10/18 09:02:54;;;;;;;12.57;10.07;;;20.60;99.90;;;;;;5049747;28;20543;-64
2022/10/18 09:05:28;;;;;;;21.23;14.27;;;20.50;99.90;;;;;;5072228;28;20931;-64
2022/10/18 09:08:26;;;;;;;17.77;12.57;;;20.40;99.90;;;;;;5062322;28;20481;-64
2022/10/18 09:11:01;;;;;;;23.57;14.07;;;;;;;;;;5063691;28;20514;-63
2022/10/18 09:13:45;;;;;;;30.17;16.70;;;20.30;99.90;;;;;;5071179;28;20449;-62
2022/10/18 09:16:15;;;;;;;30.43;18.13;;;20.10;99.90;;;;;;5052818;28;20476;-63
2022/10/18 09:18:56;;;;;;;25.03;15.27;;;20.10;99.90;;;;;;5068475;28;20486;-63
2022/10/18 09:21:30;;;;;;;26.90;15.67;;;20.10;99.90;;;;;;5065065;28;20482;-63
2022/10/18 09:24:05;;;;;;;27.40;16.20;;;20.10;99.90;;;;;;5055292;28;20853;-63
2022/10/18 09:26:40;;;;;;;25.10;17.73;;;20.00;99.90;;;;;;5063735;28;22347;-63
2022/10/18 09:29:21;;;;;;;35.37;19.10;;;20.00;99.90;;;;;;5063564;28;20755;-64
2022/10/18 09:31:55;;;;;;;31.87;17.40;;;20.00;99.90;;;;;;5050777;28;21018;-64
2022/10/18 09:34:31;;;;;;;26.00;16.80;;;20.00;99.90;;;;;;5061300;28;20492;-63
2022/10/18 09:36:58;;;;;;;25.77;18.20;;;20.00;99.90;;;;;;5057309;28;20461;-63
2022/10/18 09:39:30;;;;;;;24.57;16.37;;;20.00;99.90;;;;;;5062250;28;20494;-63
2022/10/18 09:42:01;;;;;;;28.53;16.50;;;20.10;99.90;;;;;;5065618;28;20796;-63
2022/10/18 09:44:33;;;;;;;27.57;18.70;;;20.10;99.90;;;;;;5048696;28;20909;-63
2022/10/18 09:47:02;;;;;;;31.43;18.53;;;20.10;99.90;;;;;;5068222;28;20821;-64
2022/10/18 09:49:35;;;;;;;28.77;17.73;;;20.00;99.90;;;;;;5066563;28;20932;-64
2022/10/18 09:52:07;;;;;;;24.43;17.17;;;19.90;99.90;;;;;;5069978;28;21154;-64
2022/10/18 09:54:40;;;;;;;23.10;16.40;;;19.90;99.90;;;;;;5076340;28;20474;-64
2022/10/18 09:57:13;;;;;;;25.03;18.17;;;19.70;99.90;;;;;;5063390;28;21154;-64
2022/10/18 09:59:42;;;;;;;22.03;12.80;;;19.80;99.90;;;;;;5077511;28;20474;-64
2022/10/18 10:02:13;;;;;;;25.30;16.83;;;19.80;99.90;;;;;;5076739;28;20876;-64
2022/10/18 10:04:41;;;;;;;23.10;13.33;;;19.80;99.90;;;;;;5077116;28;20695;-64
2022/10/18 10:07:12;;;;;;;27.20;16.57;;;19.80;99.90;;;;;;5068211;28;20907;-64
2022/10/18 10:09:44;;;;;;;20.77;14.10;;;19.80;99.90;;;;;;5075040;28;20482;-64
2022/10/18 10:12:26;;;;;;;24.50;13.80;;;22.00;99.90;;;;;;5075642;28;20518;-64
2022/10/18 10:14:53;;;;;;;28.60;17.03;;;20.20;99.90;;;;;;5076435;28;20974;-64
2022/10/18 10:17:23;;;;;;;19.83;15.03;;;20.30;99.90;;;;;;5075012;28;20486;-64
2022/10/18 10:20:00;;;;;;;21.93;14.70;;;20.60;99.90;;;;;;5076815;28;20808;-64
2022/10/18 10:22:34;;;;;;;25.23;15.70;;;20.60;99.90;;;;;;5075093;28;21003;-64
2022/10/18 10:25:02;;;;;;;39.67;18.70;;;24.70;99.90;;;;;;5073890;28;20485;-64
2022/10/18 10:27:31;;;;;;;29.77;15.50;;;20.80;99.90;;;;;;5072623;28;20489;-64
2022/10/18 10:29:59;;;;;;;35.50;15.70;;;20.80;99.90;;;;;;5065412;28;20468;-64
2022/10/18 10:32:45;;;;;;;51.37;17.77;;;20.80;99.90;;;;;;5076431;28;20478;-64
2022/10/18 10:35:22;;;;;;;69.13;20.40;;;20.70;99.90;;;;;;5064575;28;21509;-64
2022/10/18 10:37:51;;;;;;;64.87;20.83;;;;;;;;;;5073519;28;20470;-64
2022/10/18 10:40:20;;;;;;;50.17;17.23;;;20.70;99.90;;;;;;5062673;28;20552;-64
2022/10/18 10:43:10;;;;;;;57.17;17.00;;;20.60;99.90;;;;;;5052292;28;20486;-64
2022/10/18 10:45:41;;;;;;;48.57;18.53;;;20.50;99.90;;;;;;5068548;28;20497;-63
2022/10/18 10:48:14;;;;;;;48.47;16.90;;;20.50;99.90;;;;;;5069655;28;20982;-64
2022/10/18 10:51:02;;;;;;;24.40;14.00;;;20.50;99.90;;;;;;5071305;28;20848;-64
2022/10/18 10:53:49;;;;;;;20.10;12.73;;;20.60;99.90;;;;;;5055579;28;20978;-63
2022/10/18 10:56:23;;;;;;;28.10;15.47;;;20.70;99.90;;;;;;5069300;28;21282;-64
2022/10/18 10:58:51;;;;;;;25.87;14.77;;;;;;;;;;5052172;28;20976;-64
2022/10/18 11:01:21;;;;;;;21.57;14.90;;;20.60;99.90;;;;;;5076128;28;20445;-64
2022/10/18 11:03:49;;;;;;;20.63;12.90;;;20.90;99.90;;;;;;5073157;28;20494;-64
2022/10/18 11:06:50;;;;;;;23.73;16.43;;;20.90;99.90;;;;;;5068970;28;21186;-64
2022/10/18 11:09:26;;;;;;;20.30;13.97;;;21.00;99.90;;;;;;5073485;28;20467;-64
2022/10/18 11:12:03;;;;;;;22.27;11.87;;;21.00;99.90;;;;;;5064312;28;20493;-64
2022/10/18 11:14:36;;;;;;;23.90;13.63;;;21.00;99.90;;;;;;5064297;28;20830;-64
2022/10/18 11:17:11;;;;;;;21.90;15.20;;;21.10;99.90;;;;;;5072568;28;20474;-64
2022/10/18 11:19:45;;;;;;;20.37;11.47;;;21.20;99.90;;;;;;5071855;28;20508;-64
2022/10/18 11:22:19;;;;;;;16.60;11.13;;;21.30;99.90;;;;;;5073947;28;20460;-64
2022/10/18 11:24:46;;;;;;;16.63;10.03;;;21.30;99.90;;;;;;5074831;28;21608;-64
2022/10/18 11:27:20;;;;;;;18.27;12.10;;;21.30;99.90;;;;;;5070528;28;20473;-64
2022/10/18 11:30:14;;;;;;;10.93;8.63;;;21.30;99.90;;;;;;5069838;28;20491;-64
2022/10/18 11:32:48;;;;;;;18.47;11.10;;;21.30;99.90;;;;;;5065732;28;21081;-64
2022/10/18 11:35:37;;;;;;;36.53;14.20;;;21.40;99.90;;;;;;5071247;28;21018;-63
2022/10/18 11:38:18;;;;;;;38.23;15.60;;;21.30;99.90;;;;;;5074705;28;20568;-64
2022/10/18 11:40:57;;;;;;;19.70;11.17;;;21.40;99.90;;;;;;5069940;28;20571;-64
2022/10/18 11:43:32;;;;;;;19.43;11.07;;;21.50;99.90;;;;;;5073327;28;20445;-63
2022/10/18 11:46:10;;;;;;;28.73;13.20;;;21.60;99.90;;;;;;5057756;28;20470;-64
2022/10/18 11:49:00;;;;;;;16.00;10.00;;;21.70;99.90;;;;;;5074087;28;20475;-63
2022/10/18 11:51:31;;;;;;;28.33;14.00;;;;;;;;;;5073342;28;20535;-64
2022/10/18 11:54:19;;;;;;;33.13;13.73;;;21.70;99.90;;;;;;5073123;28;20832;-64
2022/10/18 11:56:53;;;;;;;16.00;11.20;;;21.70;99.90;;;;;;5070221;28;20861;-64
2022/10/18 11:59:29;;;;;;;19.47;10.10;;;21.80;99.90;;;;;;5064758;28;20690;-65
2022/10/18 12:02:02;;;;;;;16.77;11.27;;;;;;;;;;5084520;28;20466;-65
2022/10/18 12:04:36;;;;;;;15.50;10.97;;;22.30;99.90;;;;;;5060584;28;20549;-64
2022/10/18 12:07:06;;;;;;;14.90;10.60;;;22.50;99.90;;;;;;5057783;28;20485;-64
2022/10/18 12:09:37;;;;;;;17.13;10.10;;;22.80;99.90;;;;;;5076165;28;20474;-64
2022/10/18 12:12:08;;;;;;;15.13;10.33;;;;;;;;;;5065768;28;20470;-64
2022/10/18 12:14:39;;;;;;;12.10;8.63;;;23.10;99.90;;;;;;5065041;28;20540;-64
2022/10/18 12:17:12;;;;;;;16.50;8.40;;;23.30;99.90;;;;;;5057749;28;20471;-65
2022/10/18 12:19:41;;;;;;;12.47;8.60;;;23.50;99.90;;;;;;5073938;28;20501;-64
2022/10/18 12:22:14;;;;;;;12.50;8.70;;;23.30;99.90;;;;;;5064966;28;20582;-64
2022/10/18 12:24:42;;;;;;;14.20;8.63;;;23.10;99.90;;;;;;5075713;28;20509;-64
2022/10/18 12:27:13;;;;;;;10.30;7.80;;;22.90;99.90;;;;;;5063177;28;20609;-64
2022/10/18 12:29:47;;;;;;;12.63;7.80;;;22.80;99.90;;;;;;5075063;28;20441;-64
2022/10/18 12:32:17;;;;;;;11.83;8.17;;;22.70;99.90;;;;;;5075079;28;20476;-65
2022/10/18 12:34:47;;;;;;;7.23;5.47;;;22.70;99.90;;;;;;5074892;28;20478;-64
2022/10/18 12:37:51;;;;;;;6.77;6.17;;;22.70;99.90;;;;;;5070953;28;20459;-64
2022/10/18 12:40:23;;;;;;;11.97;5.30;;;22.70;99.90;;;;;;5013594;28;20482;-64
2022/10/18 12:42:52;;;;;;;7.50;6.77;;;22.60;99.90;;;;;;5071921;28;20482;-64
2022/10/18 12:45:26;;;;;;;6.57;5.97;;;22.50;99.90;;;;;;5063518;28;20461;-65
2022/10/18 12:47:53;;;;;;;7.33;6.67;;;22.40;99.90;;;;;;5076687;28;20465;-64
2022/10/18 12:50:31;;;;;;;13.80;6.33;;;22.40;99.90;;;;;;5068966;28;20479;-64